Time;durP1;ratioP1;P1;durP2;ratioP2;P2;SDS_P1;SDS_P2;PMS_P1;PMS_P2;Temp;Humidity;BMP_temperature;BMP_pressure;BME280_temperature;BME280_humidity;BME280_pressure;Samples;Min_cycle;Max_cycle;Signal;HPM_P1;HPM_P2
2022/07/11 04:03:24;;;;;;;1.43;1.43;;;15.40;99.90;;;;;;6034739;22;20508;-67
2022/07/11 04:05:50;;;;;;;1.83;1.73;;;15.40;99.90;;;;;;5019208;28;21029;-66
2022/07/11 04:08:15;;;;;;;1.63;1.53;;;15.40;99.90;;;;;;5017170;28;20409;-66
2022/07/11 04:10:41;;;;;;;1.53;1.43;;;15.40;99.90;;;;;;5016907;28;20169;-66
2022/07/11 04:13:06;;;;;;;2.10;1.50;;;15.40;99.90;;;;;;5013818;28;20182;-68
2022/07/11 04:15:32;;;;;;;1.60;1.43;;;15.40;99.90;;;;;;4995849;28;20183;-68
2022/07/11 04:17:58;;;;;;;4.03;1.60;;;15.40;99.90;;;;;;4996694;28;20538;-67
2022/07/11 04:20:23;;;;;;;1.50;1.40;;;15.50;99.90;;;;;;4997025;28;20197;-67
2022/07/11 04:22:49;;;;;;;1.30;1.20;;;15.50;99.90;;;;;;4996866;28;20202;-68
2022/07/11 04:25:14;;;;;;;1.30;1.30;;;15.60;99.90;;;;;;4996104;28;20211;-67
2022/07/11 04:27:40;;;;;;;1.50;1.40;;;15.70;99.90;;;;;;4996970;28;20639;-68
2022/07/11 04:30:06;;;;;;;2.40;1.23;;;15.70;99.90;;;;;;4996336;28;20690;-67
2022/07/11 04:32:32;;;;;;;1.50;1.40;;;15.80;99.90;;;;;;4996141;28;20199;-68
2022/07/11 04:34:57;;;;;;;2.20;2.00;;;15.90;99.90;;;;;;4995474;28;20409;-67
2022/07/11 04:37:23;;;;;;;2.77;1.73;;;16.00;99.90;;;;;;4996378;28;20175;-67
2022/07/11 04:39:48;;;;;;;2.33;2.13;;;16.00;99.90;;;;;;4995864;28;20168;-67
2022/07/11 04:42:14;;;;;;;1.80;1.70;;;16.10;99.90;;;;;;4996275;28;20728;-67
2022/07/11 04:44:41;;;;;;;2.00;1.67;;;16.10;99.90;;;;;;4996460;28;20191;-67
2022/07/11 04:47:06;;;;;;;1.53;1.43;;;16.20;99.90;;;;;;4996336;28;20199;-66
2022/07/11 04:49:32;;;;;;;2.40;1.37;;;16.20;99.90;;;;;;4996171;28;20411;-69
2022/07/11 04:51:59;;;;;;;1.80;1.70;;;16.20;99.90;;;;;;4996149;28;20182;-68
2022/07/11 04:54:24;;;;;;;1.93;1.83;;;16.20;99.90;;;;;;4994545;28;20675;-67
2022/07/11 04:56:50;;;;;;;2.10;2.00;;;16.30;99.90;;;;;;4995015;28;20426;-65
2022/07/11 04:59:16;;;;;;;1.73;1.63;;;16.40;99.90;;;;;;4996237;28;20651;-66
2022/07/11 05:01:41;;;;;;;1.90;1.80;;;16.50;99.90;;;;;;4995797;28;20187;-66
2022/07/11 05:04:07;;;;;;;1.60;1.50;;;16.60;99.90;;;;;;4995491;28;20195;-67
2022/07/11 05:06:33;;;;;;;1.70;1.60;;;16.60;99.90;;;;;;4994910;28;20199;-65
2022/07/11 05:08:59;;;;;;;1.70;1.60;;;16.60;99.90;;;;;;4995822;28;20176;-66
2022/07/11 05:11:25;;;;;;;1.60;1.40;;;16.70;99.90;;;;;;4995611;28;20393;-66
2022/07/11 05:13:50;;;;;;;1.70;1.60;;;16.80;99.90;;;;;;4995451;28;20591;-65
2022/07/11 05:16:16;;;;;;;1.50;1.40;;;16.90;99.90;;;;;;4991915;28;20201;-66
2022/07/11 05:18:42;;;;;;;1.60;1.50;;;17.00;99.90;;;;;;4982866;28;20177;-67
2022/07/11 05:21:07;;;;;;;1.93;1.83;;;17.20;99.90;;;;;;4982664;28;20419;-67
2022/07/11 05:23:33;;;;;;;4.80;2.20;;;17.30;99.90;;;;;;4994517;28;20672;-68
2022/07/11 05:25:59;;;;;;;1.87;1.73;;;17.30;99.90;;;;;;4990691;28;20192;-63
2022/07/11 05:28:24;;;;;;;2.00;1.90;;;17.40;99.90;;;;;;4987363;28;20175;-65
2022/07/11 05:30:50;;;;;;;2.10;1.90;;;17.40;99.90;;;;;;4994381;28;20225;-65
2022/07/11 05:33:15;;;;;;;2.13;2.03;;;17.50;99.90;;;;;;4995175;28;20277;-64
2022/07/11 05:35:41;;;;;;;1.93;1.83;;;17.60;99.90;;;;;;5002983;28;20179;-65
2022/07/11 05:38:07;;;;;;;2.50;2.30;;;17.80;99.90;;;;;;4986670;28;20186;-63
2022/07/11 05:40:32;;;;;;;2.00;1.90;;;17.90;99.90;;;;;;4977236;28;20236;-64
2022/07/11 05:42:58;;;;;;;4.40;1.80;;;17.90;99.90;;;;;;4979657;28;20227;-66
2022/07/11 05:45:23;;;;;;;3.47;3.27;;;18.00;99.90;;;;;;4995004;28;20548;-64
2022/07/11 05:47:50;;;;;;;2.07;1.97;;;18.00;99.90;;;;;;4995110;28;20229;-65
2022/07/11 05:50:16;;;;;;;3.30;2.53;;;18.10;99.90;;;;;;4994946;28;20449;-66
2022/07/11 05:52:42;;;;;;;2.07;1.90;;;18.20;99.90;;;;;;4994813;28;20197;-66
2022/07/11 05:55:07;;;;;;;8.63;2.80;;;18.40;99.90;;;;;;4981163;28;20672;-64
2022/07/11 05:57:33;;;;;;;2.47;2.27;;;18.50;99.90;;;;;;4975780;28;20172;-64
2022/07/11 05:59:58;;;;;;;7.57;1.90;;;18.50;99.90;;;;;;4988371;28;20657;-64
2022/07/11 06:02:24;;;;;;;2.47;2.27;;;18.50;99.90;;;;;;4978746;28;20192;-63
2022/07/11 06:04:50;;;;;;;3.87;1.97;;;18.60;99.90;;;;;;4976366;28;20591;-64
2022/07/11 06:08:40;;;;;;;2.07;1.97;;;18.60;99.90;;;;;;4977172;28;20294;-64
2022/07/11 06:10:01;;;;;;;2.00;1.90;;;18.70;99.90;;;;;;4991774;28;20540;-66
2022/07/11 06:12:26;;;;;;;3.33;2.70;;;18.80;99.90;;;;;;4987517;28;20423;-63
2022/07/11 06:14:52;;;;;;;2.40;2.17;;;18.90;99.90;;;;;;4993914;28;20200;-64
2022/07/11 06:17:17;;;;;;;2.27;2.17;;;19.00;99.90;;;;;;4985484;28;20180;-64
2022/07/11 06:19:43;;;;;;;2.50;2.30;;;19.00;99.90;;;;;;4992919;28;20262;-66
2022/07/11 06:22:09;;;;;;;1.63;1.53;;;19.10;99.90;;;;;;4994282;28;20635;-65
2022/07/11 06:24:34;;;;;;;3.00;2.70;;;19.20;99.90;;;;;;4994657;28;20199;-66
2022/07/11 06:27:00;;;;;;;2.20;2.07;;;19.30;99.90;;;;;;4994202;28;20618;-63
2022/07/11 06:29:26;;;;;;;3.20;3.00;;;19.40;99.90;;;;;;4993797;28;20202;-65
2022/07/11 06:31:52;;;;;;;2.50;2.30;;;19.50;99.90;;;;;;4978732;28;20184;-64
2022/07/11 06:34:18;;;;;;;2.57;2.37;;;19.60;99.90;;;;;;4985238;28;20920;-65
2022/07/11 06:36:44;;;;;;;2.43;2.30;;;19.60;99.90;;;;;;4989029;28;20183;-64
2022/07/11 06:39:10;;;;;;;2.33;2.13;;;19.70;99.90;;;;;;4997590;28;20887;-65
2022/07/11 06:41:35;;;;;;;2.77;2.60;;;19.90;99.90;;;;;;4977004;28;20258;-64
2022/07/11 06:44:01;;;;;;;2.83;2.20;;;19.90;99.90;;;;;;4985530;28;20742;-66
2022/07/11 06:46:27;;;;;;;2.90;2.50;;;19.90;99.90;;;;;;4981927;28;20719;-66
2022/07/11 06:48:53;;;;;;;4.70;3.80;;;20.00;99.90;;;;;;4974858;28;20169;-64
2022/07/11 06:51:19;;;;;;;2.20;2.10;;;20.20;99.90;;;;;;4974681;28;20641;-65
2022/07/11 06:53:44;;;;;;;2.37;2.17;;;20.30;99.90;;;;;;4988533;28;20192;-63
2022/07/11 06:56:10;;;;;;;1.90;1.80;;;20.40;99.90;;;;;;4993934;28;20183;-64
2022/07/11 06:58:36;;;;;;;2.83;2.63;;;;;;;;;;4993792;28;20180;-65
2022/07/11 07:01:06;;;;;;;3.53;1.80;;;;;;;;;;4992240;28;20188;-66
2022/07/11 07:03:33;;;;;;;5.67;4.20;;;20.50;99.90;;;;;;4993359;28;20408;-64
2022/07/11 07:06:00;;;;;;;2.80;2.60;;;21.30;99.20;;;;;;4992861;28;20510;-64
2022/07/11 07:08:26;;;;;;;4.77;2.03;;;;;;;;;;4993999;28;20413;-65
2022/07/11 07:10:52;;;;;;;2.50;2.30;;;;;;;;;;4993988;28;21280;-66
2022/07/11 07:13:20;;;;;;;6.60;2.57;;;21.60;98.10;;;;;;4992900;28;20769;-66
2022/07/11 07:15:46;;;;;;;3.37;2.90;;;22.10;97.80;;;;;;4988139;28;20885;-66
2022/07/11 07:18:12;;;;;;;2.43;2.23;;;22.50;96.50;;;;;;4974811;28;20398;-68
2022/07/11 07:20:38;;;;;;;2.50;2.37;;;22.70;95.90;;;;;;4981618;28;20393;-68
2022/07/11 07:23:03;;;;;;;2.80;2.60;;;23.00;95.80;;;;;;4993282;28;20991;-69
2022/07/11 07:25:29;;;;;;;2.20;2.10;;;23.30;95.40;;;;;;4993457;28;20223;-69
2022/07/11 07:27:55;;;;;;;2.40;2.30;;;23.60;95.50;;;;;;4993556;28;20258;-68
2022/07/11 07:30:21;;;;;;;2.80;2.53;;;24.00;94.70;;;;;;4998082;28;20164;-68
2022/07/11 07:32:46;;;;;;;2.80;2.40;;;24.50;93.80;;;;;;4997557;28;20417;-68
2022/07/11 07:35:12;;;;;;;2.20;1.97;;;24.60;92.10;;;;;;4997777;28;20205;-69
2022/07/11 07:37:37;;;;;;;1.93;1.83;;;24.80;92.00;;;;;;4998072;28;20175;-70
2022/07/11 07:40:04;;;;;;;2.27;2.07;;;25.30;92.10;;;;;;4998012;28;20174;-70
2022/07/11 07:42:29;;;;;;;2.03;1.93;;;25.80;92.10;;;;;;4988803;28;20207;-69
2022/07/11 07:44:55;;;;;;;2.13;2.03;;;26.70;90.10;;;;;;4996881;28;20456;-68
2022/07/11 07:47:20;;;;;;;2.13;2.03;;;27.60;86.20;;;;;;4998480;28;20202;-67
2022/07/11 07:49:46;;;;;;;1.93;1.83;;;27.80;84.00;;;;;;4997479;28;20621;-69
2022/07/11 07:52:12;;;;;;;3.20;1.60;;;27.70;82.60;;;;;;4995848;28;20175;-69
2022/07/11 07:54:38;;;;;;;1.93;1.83;;;27.60;82.90;;;;;;4980650;28;20675;-68
2022/07/11 07:57:04;;;;;;;1.73;1.63;;;27.60;80.10;;;;;;4996644;28;20274;-68
2022/07/11 07:59:29;;;;;;;1.30;1.30;;;27.90;80.30;;;;;;4996945;28;20938;-69
2022/07/11 08:01:55;;;;;;;2.00;1.47;;;28.20;79.20;;;;;;4997516;28;20218;-68
2022/07/11 08:04:21;;;;;;;1.53;1.53;;;28.20;78.70;;;;;;4980207;28;20563;-68
2022/07/11 08:06:46;;;;;;;2.03;1.67;;;28.00;80.00;;;;;;4977730;28;20192;-68
2022/07/11 08:09:12;;;;;;;1.50;1.40;;;28.20;79.30;;;;;;4988325;28;20178;-68
2022/07/11 08:11:38;;;;;;;1.20;1.20;;;28.60;79.90;;;;;;4996972;28;20497;-68
2022/07/11 08:14:04;;;;;;;1.57;1.47;;;29.40;78.40;;;;;;4995429;28;20203;-68
2022/07/11 08:16:31;;;;;;;1.80;1.70;;;30.20;75.30;;;;;;4977610;28;20179;-71
2022/07/11 08:19:03;;;;;;;2.20;2.10;;;31.00;73.20;;;;;;4985958;28;20414;-68
2022/07/11 08:21:30;;;;;;;1.80;1.63;;;31.90;68.50;;;;;;4996347;28;20446;-68
2022/07/11 08:23:56;;;;;;;1.70;1.60;;;32.80;67.90;;;;;;4996286;28;20517;-67
2022/07/11 08:26:22;;;;;;;2.03;1.93;;;33.30;64.10;;;;;;4985553;28;20454;-66
2022/07/11 08:28:48;;;;;;;1.90;1.80;;;33.10;62.70;;;;;;4988427;28;20501;-66
2022/07/11 08:31:13;;;;;;;1.60;1.50;;;32.30;63.40;;;;;;4996305;28;20183;-65
2022/07/11 08:33:39;;;;;;;1.60;1.50;;;31.40;64.50;;;;;;4996335;28;20552;-67
2022/07/11 08:36:06;;;;;;;1.27;1.20;;;30.30;64.60;;;;;;4980630;28;20275;-66
2022/07/11 08:38:32;;;;;;;1.30;1.20;;;29.00;67.80;;;;;;4993393;28;20179;-66
2022/07/11 08:40:58;;;;;;;1.40;1.30;;;;;;;;;;4995545;28;20473;-65
2022/07/11 08:43:28;;;;;;;1.70;1.20;;;28.30;70.00;;;;;;4995885;28;20237;-66
2022/07/11 08:45:54;;;;;;;1.73;1.50;;;28.00;72.90;;;;;;4996655;28;20446;-66
2022/07/11 08:48:22;;;;;;;1.60;1.50;;;28.30;72.30;;;;;;4996572;28;20761;-65
2022/07/11 08:50:49;;;;;;;1.67;1.57;;;28.90;71.30;;;;;;4995654;28;20415;-65
2022/07/11 08:53:14;;;;;;;1.63;1.53;;;29.20;69.60;;;;;;4995749;28;20510;-66
2022/07/11 08:55:40;;;;;;;2.17;1.97;;;29.10;69.40;;;;;;4996104;28;20589;-65
2022/07/11 08:58:08;;;;;;;1.50;1.40;;;28.90;70.60;;;;;;4994992;28;20176;-66
2022/07/11 09:00:35;;;;;;;1.80;1.40;;;28.60;71.90;;;;;;4994313;28;20568;-66
2022/07/11 09:03:02;;;;;;;1.20;1.20;;;28.90;72.40;;;;;;4995831;28;20422;-66
2022/07/11 09:05:28;;;;;;;1.77;1.63;;;29.30;70.80;;;;;;4995828;28;20509;-66
2022/07/11 09:07:54;;;;;;;1.67;1.57;;;30.00;71.10;;;;;;4995908;28;20451;-71
2022/07/11 09:10:20;;;;;;;1.47;1.37;;;30.80;65.30;;;;;;4991598;28;21771;-67
2022/07/11 09:13:03;;;;;;;1.37;1.27;;;31.70;67.10;;;;;;4993080;28;20535;-67
2022/07/11 09:15:43;;;;;;;1.40;1.30;;;32.50;63.10;;;;;;4982868;28;20186;-67
2022/07/11 09:18:40;;;;;;;1.60;1.50;;;33.00;61.50;;;;;;4996092;28;20429;-67
2022/07/11 09:26:40;;;;;;;1.73;1.63;;;30.60;62.00;;;;;;4988593;28;20459;-66
2022/07/11 09:29:27;;;;;;;1.57;1.40;;;29.20;65.30;;;;;;4990498;28;20405;-69
2022/07/11 09:31:53;;;;;;;1.20;1.20;;;28.90;67.20;;;;;;4983271;28;20426;-68
2022/07/11 09:34:27;;;;;;;1.00;1.00;;;28.60;67.10;;;;;;4976634;28;20419;-69
2022/07/11 09:36:57;;;;;;;1.20;1.10;;;28.20;68.70;;;;;;4994715;28;20698;-67
2022/07/11 09:39:23;;;;;;;1.60;1.50;;;28.20;69.10;;;;;;4995315;28;20451;-69
2022/07/11 09:41:54;;;;;;;1.13;1.13;;;28.10;68.20;;;;;;4983578;28;20900;-69
2022/07/11 09:44:22;;;;;;;1.13;1.13;;;28.40;67.90;;;;;;4975692;28;20399;-70
2022/07/11 09:46:51;;;;;;;1.77;1.30;;;28.50;70.00;;;;;;4994019;28;20570;-69
2022/07/11 09:49:29;;;;;;;1.23;1.13;;;29.10;69.50;;;;;;4978968;28;20420;-72
2022/07/11 09:51:55;;;;;;;1.40;1.33;;;29.30;66.50;;;;;;4989055;28;20424;-69
2022/07/11 09:54:20;;;;;;;2.20;1.50;;;29.00;67.50;;;;;;4991688;28;20443;-70
2022/07/11 09:56:51;;;;;;;1.10;1.10;;;28.50;67.60;;;;;;4993726;28;20544;-69
2022/07/11 09:59:17;;;;;;;1.67;1.57;;;28.00;69.30;;;;;;4994643;28;20164;-69
2022/07/11 10:01:44;;;;;;;1.00;1.00;;;27.80;70.60;;;;;;4994564;28;20386;-69
2022/07/11 10:04:10;;;;;;;1.00;1.00;;;28.00;69.30;;;;;;4987896;28;20421;-71
2022/07/11 10:06:37;;;;;;;1.30;1.20;;;28.10;68.20;;;;;;4991744;28;20433;-68
2022/07/11 10:09:04;;;;;;;1.53;1.33;;;28.40;66.90;;;;;;4994909;28;20388;-68
2022/07/11 10:11:34;;;;;;;9.03;1.17;;;28.20;67.60;;;;;;4995081;28;20377;-68
2022/07/11 10:14:00;;;;;;;1.60;1.10;;;28.10;68.10;;;;;;4976581;28;20436;-67
2022/07/11 10:16:29;;;;;;;1.17;1.17;;;27.80;68.60;;;;;;4973345;28;20405;-69
2022/07/11 10:19:13;;;;;;;1.30;1.30;;;27.40;69.20;;;;;;4975001;28;20416;-69
2022/07/11 10:21:47;;;;;;;1.53;1.43;;;27.00;70.40;;;;;;4993077;28;20407;-70
2022/07/11 10:24:23;;;;;;;1.40;1.20;;;26.90;73.70;;;;;;4991354;28;20462;-69
2022/07/11 10:27:07;;;;;;;0.80;0.80;;;27.00;76.50;;;;;;4991637;28;20971;-68
2022/07/11 10:29:37;;;;;;;1.20;1.20;;;27.50;76.60;;;;;;4985939;28;20423;-69
2022/07/11 10:32:09;;;;;;;1.27;1.17;;;28.30;74.20;;;;;;4975524;28;20400;-70
2022/07/11 10:34:35;;;;;;;1.00;1.00;;;28.60;71.40;;;;;;4983772;28;20450;-68
2022/07/11 10:37:04;;;;;;;2.53;1.33;;;29.00;70.40;;;;;;4994585;28;20373;-68
2022/07/11 10:39:32;;;;;;;1.70;1.43;;;29.40;70.20;;;;;;4994371;28;20410;-70
2022/07/11 10:41:59;;;;;;;1.87;1.77;;;29.50;68.50;;;;;;4994314;28;20889;-67
2022/07/11 10:44:26;;;;;;;1.90;0.90;;;29.40;70.10;;;;;;4983398;28;20443;-69
2022/07/11 10:46:52;;;;;;;1.13;1.13;;;29.30;69.80;;;;;;4977040;28;20451;-68
2022/07/11 10:49:31;;;;;;;1.33;1.30;;;29.00;69.90;;;;;;4988364;28;20393;-69
2022/07/11 10:52:07;;;;;;;1.20;1.20;;;28.90;67.90;;;;;;4994426;28;20754;-70
2022/07/11 10:54:42;;;;;;;1.40;1.30;;;28.70;67.30;;;;;;4993970;28;20405;-71
2022/07/11 10:57:44;;;;;;;1.30;1.20;;;28.30;66.30;;;;;;4994228;28;20830;-68
2022/07/11 11:00:14;;;;;;;1.50;1.40;;;28.00;68.20;;;;;;4993677;28;20426;-68
2022/07/11 11:02:59;;;;;;;1.10;1.10;;;27.60;69.40;;;;;;4993305;28;20425;-67
2022/07/11 11:05:48;;;;;;;1.27;1.17;;;27.60;72.00;;;;;;4993800;28;20488;-68
2022/07/11 11:08:42;;;;;;;1.00;1.00;;;27.80;71.40;;;;;;4993901;28;20374;-68
2022/07/11 11:11:23;;;;;;;1.00;1.00;;;27.70;70.10;;;;;;4993871;28;20933;-67
2022/07/11 11:14:21;;;;;;;1.40;1.27;;;27.50;70.70;;;;;;4993421;28;20758;-68
2022/07/11 11:16:47;;;;;;;1.33;1.23;;;27.40;72.80;;;;;;4992295;28;20386;-68
2022/07/11 11:19:50;;;;;;;1.30;1.23;;;27.30;71.20;;;;;;4992594;28;20779;-68
2022/07/11 11:22:18;;;;;;;1.30;1.20;;;27.30;70.40;;;;;;4993486;28;20850;-70
2022/07/11 11:24:45;;;;;;;0.87;0.87;;;27.30;70.90;;;;;;4992374;28;20851;-70
2022/07/11 11:27:26;;;;;;;1.20;1.17;;;27.40;70.20;;;;;;4993083;28;20516;-70
2022/07/11 11:29:56;;;;;;;0.90;0.90;;;27.50;68.80;;;;;;4993793;28;20407;-68
2022/07/11 11:32:30;;;;;;;1.10;1.00;;;27.60;68.20;;;;;;4993173;28;20427;-71
2022/07/11 11:34:56;;;;;;;1.90;1.30;;;27.70;69.00;;;;;;4993710;28;20409;-69
2022/07/11 11:37:22;;;;;;;1.20;1.10;;;27.90;69.10;;;;;;4993282;28;20488;-69
2022/07/11 11:39:56;;;;;;;1.37;1.30;;;28.00;68.40;;;;;;4993682;28;20481;-70
2022/07/11 11:42:22;;;;;;;1.53;0.97;;;27.90;68.30;;;;;;4993476;28;20402;-69
2022/07/11 11:45:01;;;;;;;1.47;1.37;;;27.70;68.70;;;;;;4993627;28;20405;-70
2022/07/11 11:47:31;;;;;;;0.97;0.97;;;27.40;70.50;;;;;;4994458;28;20195;-69
2022/07/11 11:49:57;;;;;;;1.60;1.50;;;27.10;73.00;;;;;;4993327;28;20423;-69
2022/07/11 11:52:24;;;;;;;1.40;1.30;;;27.00;72.30;;;;;;4973694;28;20715;-70
2022/07/11 11:54:58;;;;;;;1.57;1.47;;;26.90;71.90;;;;;;4974018;28;20242;-68
2022/07/11 11:57:25;;;;;;;1.23;1.23;;;26.80;71.80;;;;;;4986533;28;20396;-69
2022/07/11 11:59:51;;;;;;;1.27;1.20;;;26.80;75.50;;;;;;4993492;28;20869;-70
2022/07/11 12:02:30;;;;;;;1.30;1.20;;;26.80;73.00;;;;;;4992933;28;20436;-68
2022/07/11 12:04:57;;;;;;;1.60;1.50;;;26.80;73.40;;;;;;4972518;28;20591;-69
2022/07/11 12:07:26;;;;;;;1.50;1.40;;;26.60;73.80;;;;;;4978225;28;20944;-69
2022/07/11 12:09:55;;;;;;;1.37;1.27;;;26.70;74.20;;;;;;4983328;28;20445;-70
2022/07/11 12:15:25;;;;;;;1.73;1.20;;;26.80;74.60;;;;;;4979000;28;20476;-70
2022/07/11 12:17:52;;;;;;;1.00;1.00;;;26.90;72.80;;;;;;4991768;28;20501;-69
2022/07/11 12:20:43;;;;;;;1.20;1.20;;;26.90;73.60;;;;;;4988789;28;20381;-71
2022/07/11 12:23:11;;;;;;;1.27;1.17;;;27.10;75.00;;;;;;4993311;28;20473;-70
2022/07/11 12:25:38;;;;;;;1.53;1.43;;;27.10;72.20;;;;;;4986203;28;20545;-69
2022/07/11 12:28:05;;;;;;;1.40;1.30;;;27.00;72.50;;;;;;4996919;28;20493;-68
2022/07/11 12:30:30;;;;;;;2.57;2.37;;;27.00;71.80;;;;;;4989281;28;20383;-70
2022/07/11 12:33:04;;;;;;;1.43;1.40;;;26.90;72.00;;;;;;4976939;28;20386;-69
2022/07/11 12:35:29;;;;;;;1.70;1.60;;;26.80;72.00;;;;;;4977454;28;20211;-71
2022/07/11 12:37:55;;;;;;;1.40;1.30;;;26.80;72.40;;;;;;4989422;28;20945;-70
2022/07/11 12:40:21;;;;;;;1.90;1.80;;;26.80;73.70;;;;;;4995264;28;20635;-69
2022/07/11 12:42:47;;;;;;;1.30;1.30;;;26.90;77.00;;;;;;4995525;28;20178;-69
2022/07/11 12:45:15;;;;;;;2.47;2.20;;;26.90;74.70;;;;;;4992309;28;20793;-70
2022/07/11 12:47:46;;;;;;;1.70;1.60;;;26.90;73.10;;;;;;4976677;28;20420;-70
2022/07/11 12:50:17;;;;;;;1.37;1.37;;;26.70;73.70;;;;;;4976920;28;20415;-71
2022/07/11 12:52:47;;;;;;;1.43;1.37;;;26.60;73.70;;;;;;4985335;28;20393;-70
2022/07/11 12:55:24;;;;;;;1.97;1.50;;;26.40;74.60;;;;;;4996195;28;21023;-71
2022/07/11 12:58:17;;;;;;;1.60;1.50;;;26.10;76.20;;;;;;4995168;28;20399;-70
2022/07/11 13:01:03;;;;;;;1.93;1.67;;;26.10;77.70;;;;;;4996332;28;20509;-68
2022/07/11 13:03:34;;;;;;;1.47;1.37;;;26.00;77.00;;;;;;4995810;28;20862;-73
2022/07/11 13:06:02;;;;;;;1.70;1.50;;;26.10;76.20;;;;;;4982669;28;20494;-67
2022/07/11 13:08:45;;;;;;;1.80;1.70;;;26.30;78.60;;;;;;4993421;28;20462;-69
2022/07/11 13:11:24;;;;;;;2.00;1.80;;;26.30;77.00;;;;;;4992286;28;20398;-68
2022/07/11 13:13:50;;;;;;;2.10;2.00;;;26.30;77.90;;;;;;4983553;28;20421;-68
2022/07/11 13:16:17;;;;;;;1.73;1.63;;;26.30;77.00;;;;;;4976645;28;20472;-69
2022/07/11 13:18:45;;;;;;;2.10;2.00;;;26.30;76.00;;;;;;4988879;28;20414;-68
2022/07/11 13:21:11;;;;;;;1.43;1.37;;;26.30;76.20;;;;;;4994087;28;20429;-69
2022/07/11 13:23:37;;;;;;;2.23;1.97;;;26.30;76.20;;;;;;4995155;28;20531;-69
2022/07/11 13:26:04;;;;;;;2.10;2.00;;;26.30;79.30;;;;;;4975892;28;20208;-68
2022/07/11 13:28:30;;;;;;;2.23;2.03;;;26.20;76.90;;;;;;4976892;28;20426;-69
2022/07/11 13:30:56;;;;;;;1.83;1.73;;;26.30;76.90;;;;;;4995560;28;20928;-68
2022/07/11 13:33:22;;;;;;;1.80;1.70;;;26.40;76.50;;;;;;4995104;28;20193;-69
2022/07/11 13:35:49;;;;;;;3.00;1.83;;;26.50;76.70;;;;;;4994920;28;20178;-68
2022/07/11 13:38:15;;;;;;;1.30;1.30;;;26.50;75.90;;;;;;4995251;28;20420;-69
2022/07/11 13:40:41;;;;;;;1.67;1.57;;;26.50;77.60;;;;;;4975540;28;20386;-69
2022/07/11 13:43:07;;;;;;;1.57;1.50;;;26.60;76.50;;;;;;4995139;28;20384;-69
2022/07/11 13:45:33;;;;;;;1.67;1.57;;;26.70;76.10;;;;;;4989767;28;20516;-69
2022/07/11 13:47:59;;;;;;;2.50;2.30;;;26.80;75.60;;;;;;4980425;28;20186;-69
2022/07/11 13:50:25;;;;;;;1.80;1.70;;;26.70;76.00;;;;;;4977743;28;20389;-69
2022/07/11 13:52:51;;;;;;;1.93;1.83;;;26.70;76.60;;;;;;4995046;28;20171;-69
2022/07/11 13:55:18;;;;;;;1.77;1.67;;;26.70;78.40;;;;;;4994811;28;20820;-69
2022/07/11 13:57:44;;;;;;;2.30;2.10;;;26.70;77.30;;;;;;4978139;28;20210;-69
2022/07/11 14:00:10;;;;;;;2.27;2.17;;;26.50;79.40;;;;;;4975765;28;20407;-69
2022/07/11 14:02:35;;;;;;;2.07;1.97;;;26.50;77.20;;;;;;4977284;28;20868;-70
2022/07/11 14:05:01;;;;;;;2.70;2.60;;;26.60;75.40;;;;;;4994975;28;20465;-67
2022/07/11 14:07:27;;;;;;;2.20;2.00;;;26.60;76.00;;;;;;4994918;28;20195;-68
2022/07/11 14:09:53;;;;;;;2.00;1.90;;;26.50;77.30;;;;;;4993298;28;20205;-68
2022/07/11 14:12:19;;;;;;;1.83;1.73;;;26.40;77.20;;;;;;4994747;28;20194;-69
2022/07/11 14:14:45;;;;;;;1.80;1.70;;;26.30;77.00;;;;;;4994377;28;20935;-69
2022/07/11 14:17:11;;;;;;;1.67;1.57;;;26.20;78.10;;;;;;4988337;28;20425;-69
2022/07/11 14:19:38;;;;;;;2.60;2.40;;;26.20;79.30;;;;;;4974113;28;20216;-69
2022/07/11 14:22:05;;;;;;;2.27;2.17;;;26.20;78.20;;;;;;4975041;28;20175;-70
2022/07/11 14:24:32;;;;;;;2.77;2.57;;;26.20;77.90;;;;;;4978504;28;20449;-69
2022/07/11 14:26:58;;;;;;;3.20;1.80;;;26.10;79.20;;;;;;4975432;28;20446;-69
2022/07/11 14:29:24;;;;;;;2.10;2.00;;;26.10;77.70;;;;;;4975110;28;20377;-69
2022/07/11 14:31:52;;;;;;;1.87;1.77;;;26.10;79.00;;;;;;4975223;28;20731;-69
2022/07/11 14:34:18;;;;;;;1.70;1.60;;;26.10;78.00;;;;;;4974724;28;20839;-69
2022/07/11 14:36:43;;;;;;;2.30;2.20;;;26.00;78.80;;;;;;4974698;28;20426;-70
2022/07/11 14:39:09;;;;;;;1.87;1.77;;;25.90;77.60;;;;;;4990087;28;20707;-69
2022/07/11 14:41:36;;;;;;;1.80;1.70;;;25.80;79.10;;;;;;4977865;28;20208;-68
2022/07/11 14:44:01;;;;;;;2.10;2.00;;;25.80;80.40;;;;;;4974568;28;20189;-68
2022/07/11 14:46:27;;;;;;;1.97;1.87;;;25.80;81.20;;;;;;4988949;28;20433;-69
2022/07/11 14:48:52;;;;;;;2.27;2.10;;;25.80;81.50;;;;;;4993768;28;20296;-70
2022/07/11 14:51:18;;;;;;;1.73;1.63;;;25.80;80.20;;;;;;4994134;28;20222;-70
2022/07/11 14:53:44;;;;;;;2.00;1.90;;;25.60;79.90;;;;;;4991864;28;20278;-68
2022/07/11 14:56:09;;;;;;;2.30;2.17;;;25.60;80.60;;;;;;4994134;28;20548;-68
2022/07/11 14:58:35;;;;;;;1.83;1.73;;;25.60;80.60;;;;;;4994156;28;20182;-72
2022/07/11 15:01:01;;;;;;;2.10;1.90;;;25.50;79.90;;;;;;4994310;28;20171;-70
2022/07/11 15:03:38;;;;;;;2.00;1.90;;;25.30;81.70;;;;;;4993678;28;20651;-70
2022/07/11 15:06:09;;;;;;;3.10;1.70;;;25.30;83.50;;;;;;4992549;28;20223;-70
2022/07/11 15:14:04;;;;;;;1.73;1.63;;;25.30;81.70;;;;;;4993147;28;20454;-68
2022/07/11 15:16:31;;;;;;;2.10;1.90;;;25.40;81.30;;;;;;4993878;28;20886;-64
2022/07/11 15:19:02;;;;;;;2.23;2.03;;;25.50;80.80;;;;;;4993276;28;20438;-68
2022/07/11 15:21:28;;;;;;;2.20;2.10;;;25.50;80.30;;;;;;4993766;28;20399;-67
2022/07/11 15:23:54;;;;;;;4.40;2.13;;;25.40;81.00;;;;;;4992994;28;20521;-66
2022/07/11 15:26:20;;;;;;;1.87;1.60;;;25.50;82.30;;;;;;4993471;28;20481;-67
2022/07/11 15:28:49;;;;;;;4.00;1.80;;;25.50;82.60;;;;;;4993543;28;20425;-70
2022/07/11 15:31:15;;;;;;;2.03;1.63;;;25.40;80.40;;;;;;4993333;28;20202;-69
2022/07/11 15:33:45;;;;;;;2.00;1.90;;;25.30;80.80;;;;;;4992911;28;20438;-67
2022/07/11 15:36:11;;;;;;;1.93;1.83;;;25.20;82.50;;;;;;4992250;28;20916;-69
2022/07/11 15:38:37;;;;;;;2.00;1.90;;;25.10;82.40;;;;;;4992756;28;20931;-67
2022/07/11 15:41:03;;;;;;;1.83;1.73;;;25.10;83.00;;;;;;4993250;28;20390;-67
2022/07/11 15:43:32;;;;;;;1.80;1.70;;;25.10;83.70;;;;;;4993079;28;20230;-67
2022/07/11 15:45:59;;;;;;;1.83;1.73;;;25.20;84.50;;;;;;4993088;28;20433;-68
2022/07/11 15:48:26;;;;;;;7.20;4.20;;;25.20;83.20;;;;;;4993249;28;20403;-69
2022/07/11 15:50:52;;;;;;;2.40;2.20;;;25.30;84.30;;;;;;4994741;28;20404;-69
2022/07/11 15:53:19;;;;;;;2.03;1.93;;;25.20;84.70;;;;;;4996930;28;20427;-68
2022/07/11 15:55:46;;;;;;;4.53;2.33;;;25.20;83.50;;;;;;4997119;28;20262;-69
2022/07/11 15:58:12;;;;;;;2.70;2.50;;;25.10;82.20;;;;;;4997160;28;20377;-69
2022/07/11 16:00:39;;;;;;;2.10;1.83;;;25.00;82.10;;;;;;4995884;28;20397;-68
2022/07/11 16:03:05;;;;;;;2.00;1.90;;;24.90;81.90;;;;;;4996247;28;20901;-68
2022/07/11 16:05:31;;;;;;;1.70;1.60;;;24.80;82.50;;;;;;4988605;28;20446;-66
2022/07/11 16:07:56;;;;;;;2.27;1.93;;;24.60;82.50;;;;;;4987597;28;20422;-68
2022/07/11 16:10:22;;;;;;;6.90;2.10;;;24.60;83.20;;;;;;4986935;28;20652;-67
2022/07/11 16:12:48;;;;;;;2.10;2.00;;;24.50;82.70;;;;;;4976925;28;20164;-69
2022/07/11 16:15:13;;;;;;;1.73;1.63;;;24.30;84.20;;;;;;4977338;28;20274;-68
2022/07/11 16:17:39;;;;;;;3.10;2.57;;;24.30;84.90;;;;;;4977230;28;20251;-67
2022/07/11 16:20:06;;;;;;;2.47;2.20;;;24.20;85.20;;;;;;4977320;28;20739;-64
2022/07/11 16:22:31;;;;;;;2.50;2.30;;;24.20;86.60;;;;;;4987595;28;20258;-68
2022/07/11 16:24:57;;;;;;;3.30;1.87;;;24.10;86.50;;;;;;4988289;28;20512;-67
2022/07/11 16:27:23;;;;;;;2.40;2.30;;;24.10;85.10;;;;;;4977053;28;20258;-69
2022/07/11 16:29:49;;;;;;;2.37;2.27;;;24.00;84.80;;;;;;4980162;28;20823;-69
2022/07/11 16:32:15;;;;;;;4.87;2.33;;;23.90;84.50;;;;;;4995842;28;20238;-70
2022/07/11 16:34:41;;;;;;;2.10;2.00;;;23.80;84.80;;;;;;4996584;28;20408;-65
2022/07/11 16:37:07;;;;;;;1.93;1.83;;;23.70;83.80;;;;;;4996751;28;20414;-67
2022/07/11 16:45:01;;;;;;;2.37;2.03;;;23.50;84.10;;;;;;4996775;28;20470;-69
2022/07/11 16:47:27;;;;;;;2.20;2.00;;;23.50;84.70;;;;;;4996507;28;20957;-68
2022/07/11 16:49:53;;;;;;;2.37;2.27;;;23.40;85.00;;;;;;4995554;28;20688;-68
2022/07/11 16:52:19;;;;;;;1.90;1.80;;;23.40;85.30;;;;;;4980497;28;20477;-69
2022/07/11 16:54:46;;;;;;;2.07;1.97;;;23.30;85.00;;;;;;4985707;28;20199;-69
2022/07/11 16:57:12;;;;;;;1.90;1.80;;;23.20;84.90;;;;;;4976940;28;20424;-70
2022/07/11 16:59:38;;;;;;;2.03;1.93;;;23.20;85.60;;;;;;4980630;28;20473;-70
2022/07/11 17:02:04;;;;;;;2.23;2.00;;;23.10;85.50;;;;;;4995597;28;20594;-70
2022/07/11 17:04:30;;;;;;;2.17;2.07;;;23.10;85.80;;;;;;4995932;28;20510;-70
2022/07/11 17:06:56;;;;;;;1.90;1.80;;;23.10;85.80;;;;;;4996564;28;20210;-70
2022/07/11 17:09:21;;;;;;;1.63;1.53;;;23.10;86.30;;;;;;4996189;28;20171;-69
2022/07/11 17:11:47;;;;;;;2.00;1.90;;;23.10;86.10;;;;;;4979884;28;20995;-69
2022/07/11 17:14:13;;;;;;;2.00;1.90;;;23.10;86.40;;;;;;4979113;28;20480;-70